sensor_id;sensor_type;location;lat;lon;timestamp;temperature;humidity
3699;DHT22;1865;50.918;7.092;2022-07-29T00:00:34;22.90;40.90
3699;DHT22;1865;50.918;7.092;2022-07-29T00:02:59;22.90;41.10
3699;DHT22;1865;50.918;7.092;2022-07-29T00:05:25;22.90;40.90
3699;DHT22;1865;50.918;7.092;2022-07-29T00:07:53;22.90;41.20
3699;DHT22;1865;50.918;7.092;2022-07-29T00:10:20;22.90;41.20
3699;DHT22;1865;50.918;7.092;2022-07-29T00:12:48;23.00;41.20
3699;DHT22;1865;50.918;7.092;2022-07-29T00:15:16;22.90;41.50
3699;DHT22;1865;50.918;7.092;2022-07-29T00:17:42;22.90;41.50
3699;DHT22;1865;50.918;7.092;2022-07-29T00:20:08;22.80;42.00
3699;DHT22;1865;50.918;7.092;2022-07-29T00:22:37;22.80;42.30
3699;DHT22;1865;50.918;7.092;2022-07-29T00:25:03;22.90;42.30
3699;DHT22;1865;50.918;7.092;2022-07-29T00:27:30;22.90;42.10
3699;DHT22;1865;50.918;7.092;2022-07-29T00:29:55;22.90;41.80
3699;DHT22;1865;50.918;7.092;2022-07-29T00:32:23;22.90;41.70
3699;DHT22;1865;50.918;7.092;2022-07-29T00:34:49;23.00;41.40
3699;DHT22;1865;50.918;7.092;2022-07-29T00:37:34;23.00;41.40
3699;DHT22;1865;50.918;7.092;2022-07-29T00:40:00;23.00;41.80
3699;DHT22;1865;50.918;7.092;2022-07-29T00:42:27;22.80;42.00
3699;DHT22;1865;50.918;7.092;2022-07-29T00:44:52;22.80;42.20
3699;DHT22;1865;50.918;7.092;2022-07-29T00:47:21;22.80;42.20
3699;DHT22;1865;50.918;7.092;2022-07-29T00:49:48;22.80;42.30
3699;DHT22;1865;50.918;7.092;2022-07-29T00:52:13;22.70;42.20
3699;DHT22;1865;50.918;7.092;2022-07-29T00:54:40;22.70;41.90
3699;DHT22;1865;50.918;7.092;2022-07-29T00:57:07;22.70;42.70
3699;DHT22;1865;50.918;7.092;2022-07-29T00:59:33;22.70;42.40
3699;DHT22;1865;50.918;7.092;2022-07-29T01:02:02;22.70;42.60
3699;DHT22;1865;50.918;7.092;2022-07-29T01:04:29;22.70;42.70
3699;DHT22;1865;50.918;7.092;2022-07-29T01:06:55;22.70;42.80
3699;DHT22;1865;50.918;7.092;2022-07-29T01:09:21;22.70;42.90
3699;DHT22;1865;50.918;7.092;2022-07-29T01:11:47;22.70;42.80
3699;DHT22;1865;50.918;7.092;2022-07-29T01:14:14;22.70;43.00
3699;DHT22;1865;50.918;7.092;2022-07-29T01:16:55;22.70;42.80
3699;DHT22;1865;50.918;7.092;2022-07-29T01:30:42;22.60;42.30
3699;DHT22;1865;50.918;7.092;2022-07-29T01:33:12;22.50;42.20
3699;DHT22;1865;50.918;7.092;2022-07-29T01:36:00;22.50;42.30
3699;DHT22;1865;50.918;7.092;2022-07-29T01:38:28;22.50;42.30
3699;DHT22;1865;50.918;7.092;2022-07-29T01:41:04;22.50;42.50
3699;DHT22;1865;50.918;7.092;2022-07-29T01:46:13;22.50;42.70
3699;DHT22;1865;50.918;7.092;2022-07-29T01:48:53;22.50;42.90
3699;DHT22;1865;50.918;7.092;2022-07-29T01:51:31;22.50;43.00
3699;DHT22;1865;50.918;7.092;2022-07-29T01:56:55;22.50;43.00
3699;DHT22;1865;50.918;7.092;2022-07-29T01:59:26;22.50;43.00
3699;DHT22;1865;50.918;7.092;2022-07-29T02:01:54;22.60;42.90
3699;DHT22;1865;50.918;7.092;2022-07-29T02:04:20;22.50;43.20
3699;DHT22;1865;50.918;7.092;2022-07-29T02:06:49;22.40;43.10
3699;DHT22;1865;50.918;7.092;2022-07-29T02:09:17;22.30;43.20
3699;DHT22;1865;50.918;7.092;2022-07-29T02:11:48;22.30;43.90
3699;DHT22;1865;50.918;7.092;2022-07-29T02:14:18;22.20;44.60
3699;DHT22;1865;50.918;7.092;2022-07-29T02:16:47;22.10;44.80
3699;DHT22;1865;50.918;7.092;2022-07-29T02:19:19;22.20;44.70
3699;DHT22;1865;50.918;7.092;2022-07-29T02:21:46;22.20;44.70
3699;DHT22;1865;50.918;7.092;2022-07-29T02:24:12;22.10;44.80
3699;DHT22;1865;50.918;7.092;2022-07-29T02:26:41;22.10;44.80
3699;DHT22;1865;50.918;7.092;2022-07-29T02:29:14;22.10;44.80
3699;DHT22;1865;50.918;7.092;2022-07-29T02:31:41;22.00;44.90
3699;DHT22;1865;50.918;7.092;2022-07-29T02:34:09;21.90;45.00
3699;DHT22;1865;50.918;7.092;2022-07-29T02:36:36;21.90;45.30
3699;DHT22;1865;50.918;7.092;2022-07-29T02:39:04;21.90;44.90
3699;DHT22;1865;50.918;7.092;2022-07-29T02:41:44;21.90;45.10
3699;DHT22;1865;50.918;7.092;2022-07-29T02:44:14;22.00;45.30
3699;DHT22;1865;50.918;7.092;2022-07-29T02:46:50;22.00;45.20
3699;DHT22;1865;50.918;7.092;2022-07-29T02:49:28;22.00;45.30
3699;DHT22;1865;50.918;7.092;2022-07-29T02:52:06;22.00;45.10
3699;DHT22;1865;50.918;7.092;2022-07-29T02:54:51;21.90;45.70
3699;DHT22;1865;50.918;7.092;2022-07-29T02:57:33;21.80;46.30
3699;DHT22;1865;50.918;7.092;2022-07-29T03:00:04;21.70;46.50
3699;DHT22;1865;50.918;7.092;2022-07-29T03:02:35;21.60;46.60
3699;DHT22;1865;50.918;7.092;2022-07-29T03:05:02;21.70;47.00
3699;DHT22;1865;50.918;7.092;2022-07-29T03:07:29;21.50;47.50
3699;DHT22;1865;50.918;7.092;2022-07-29T03:09:55;21.40;48.10
3699;DHT22;1865;50.918;7.092;2022-07-29T03:12:22;21.40;48.40
3699;DHT22;1865;50.918;7.092;2022-07-29T03:14:55;21.40;48.40
3699;DHT22;1865;50.918;7.092;2022-07-29T03:17:34;21.40;47.80
3699;DHT22;1865;50.918;7.092;2022-07-29T03:20:03;21.50;47.70
3699;DHT22;1865;50.918;7.092;2022-07-29T03:22:29;21.50;47.90
3699;DHT22;1865;50.918;7.092;2022-07-29T03:24:56;21.40;48.00
3699;DHT22;1865;50.918;7.092;2022-07-29T03:27:23;21.40;48.20
3699;DHT22;1865;50.918;7.092;2022-07-29T03:29:48;21.40;48.30
3699;DHT22;1865;50.918;7.092;2022-07-29T03:32:14;21.40;48.20
3699;DHT22;1865;50.918;7.092;2022-07-29T03:34:40;21.40;48.40
3699;DHT22;1865;50.918;7.092;2022-07-29T03:37:06;21.30;48.50
3699;DHT22;1865;50.918;7.092;2022-07-29T03:39:36;21.40;48.30
3699;DHT22;1865;50.918;7.092;2022-07-29T03:42:04;21.40;48.10
3699;DHT22;1865;50.918;7.092;2022-07-29T03:44:32;21.50;48.10
3699;DHT22;1865;50.918;7.092;2022-07-29T03:46:59;21.50;48.80
3699;DHT22;1865;50.918;7.092;2022-07-29T03:49:26;21.60;47.90
3699;DHT22;1865;50.918;7.092;2022-07-29T03:51:55;21.60;47.60
3699;DHT22;1865;50.918;7.092;2022-07-29T03:54:23;21.60;47.60
3699;DHT22;1865;50.918;7.092;2022-07-29T03:56:50;21.60;47.10
3699;DHT22;1865;50.918;7.092;2022-07-29T03:59:18;21.60;47.30
3699;DHT22;1865;50.918;7.092;2022-07-29T04:01:48;21.60;47.10
3699;DHT22;1865;50.918;7.092;2022-07-29T04:04:16;21.60;47.50
3699;DHT22;1865;50.918;7.092;2022-07-29T04:06:44;21.50;47.60
3699;DHT22;1865;50.918;7.092;2022-07-29T04:09:11;21.60;46.90
3699;DHT22;1865;50.918;7.092;2022-07-29T04:11:43;21.70;46.40
3699;DHT22;1865;50.918;7.092;2022-07-29T04:14:10;21.60;46.80
3699;DHT22;1865;50.918;7.092;2022-07-29T04:16:36;21.60;46.40
3699;DHT22;1865;50.918;7.092;2022-07-29T04:19:02;21.70;46.30
3699;DHT22;1865;50.918;7.092;2022-07-29T04:21:27;21.70;46.10
3699;DHT22;1865;50.918;7.092;2022-07-29T04:23:53;21.70;46.00
3699;DHT22;1865;50.918;7.092;2022-07-29T04:26:19;21.70;45.70
3699;DHT22;1865;50.918;7.092;2022-07-29T04:28:47;21.70;46.00
3699;DHT22;1865;50.918;7.092;2022-07-29T04:31:13;21.80;46.10
3699;DHT22;1865;50.918;7.092;2022-07-29T04:33:40;21.80;45.90
3699;DHT22;1865;50.918;7.092;2022-07-29T04:36:06;21.80;45.90
3699;DHT22;1865;50.918;7.092;2022-07-29T04:38:33;21.80;45.50
3699;DHT22;1865;50.918;7.092;2022-07-29T04:41:02;21.90;45.40
3699;DHT22;1865;50.918;7.092;2022-07-29T04:43:27;21.90;44.00
3699;DHT22;1865;50.918;7.092;2022-07-29T04:45:53;22.00;43.80
3699;DHT22;1865;50.918;7.092;2022-07-29T04:48:19;22.10;43.30
3699;DHT22;1865;50.918;7.092;2022-07-29T04:50:44;22.20;43.30
3699;DHT22;1865;50.918;7.092;2022-07-29T04:53:10;22.20;42.20
3699;DHT22;1865;50.918;7.092;2022-07-29T04:55:35;22.20;42.10
3699;DHT22;1865;50.918;7.092;2022-07-29T04:58:02;22.30;42.10
3699;DHT22;1865;50.918;7.092;2022-07-29T05:00:28;22.30;42.60
3699;DHT22;1865;50.918;7.092;2022-07-29T05:02:58;22.40;41.80
3699;DHT22;1865;50.918;7.092;2022-07-29T05:05:24;22.40;42.10
3699;DHT22;1865;50.918;7.092;2022-07-29T05:07:49;22.40;41.80
3699;DHT22;1865;50.918;7.092;2022-07-29T05:10:15;22.50;41.50
3699;DHT22;1865;50.918;7.092;2022-07-29T05:12:41;22.40;41.90
3699;DHT22;1865;50.918;7.092;2022-07-29T05:15:09;22.60;41.60
3699;DHT22;1865;50.918;7.092;2022-07-29T05:17:34;22.60;41.00
3699;DHT22;1865;50.918;7.092;2022-07-29T05:20:01;22.70;40.60
3699;DHT22;1865;50.918;7.092;2022-07-29T05:22:27;22.70;40.30
3699;DHT22;1865;50.918;7.092;2022-07-29T05:24:54;22.70;40.20
3699;DHT22;1865;50.918;7.092;2022-07-29T05:27:19;22.80;40.20
3699;DHT22;1865;50.918;7.092;2022-07-29T05:29:45;22.90;40.10
3699;DHT22;1865;50.918;7.092;2022-07-29T05:32:11;22.90;40.10
3699;DHT22;1865;50.918;7.092;2022-07-29T05:34:37;22.90;39.70
3699;DHT22;1865;50.918;7.092;2022-07-29T05:37:02;22.90;39.70
3699;DHT22;1865;50.918;7.092;2022-07-29T05:39:29;23.00;39.80
3699;DHT22;1865;50.918;7.092;2022-07-29T05:41:55;23.00;39.70
3699;DHT22;1865;50.918;7.092;2022-07-29T05:44:20;23.00;40.00
3699;DHT22;1865;50.918;7.092;2022-07-29T05:46:46;23.10;39.50
3699;DHT22;1865;50.918;7.092;2022-07-29T05:49:13;23.20;39.30
3699;DHT22;1865;50.918;7.092;2022-07-29T05:51:40;23.20;39.60
3699;DHT22;1865;50.918;7.092;2022-07-29T05:54:06;23.20;39.20
3699;DHT22;1865;50.918;7.092;2022-07-29T05:56:36;23.40;39.10
3699;DHT22;1865;50.918;7.092;2022-07-29T05:59:01;23.40;39.00
3699;DHT22;1865;50.918;7.092;2022-07-29T06:01:28;23.50;39.20
3699;DHT22;1865;50.918;7.092;2022-07-29T06:03:54;23.40;39.20
3699;DHT22;1865;50.918;7.092;2022-07-29T06:06:20;23.50;39.00
3699;DHT22;1865;50.918;7.092;2022-07-29T06:08:45;23.50;38.80
3699;DHT22;1865;50.918;7.092;2022-07-29T06:11:11;23.60;39.60
3699;DHT22;1865;50.918;7.092;2022-07-29T06:13:38;23.60;39.20
3699;DHT22;1865;50.918;7.092;2022-07-29T06:16:03;23.60;38.90
3699;DHT22;1865;50.918;7.092;2022-07-29T06:18:29;23.70;38.60
3699;DHT22;1865;50.918;7.092;2022-07-29T06:20:55;23.80;38.50
3699;DHT22;1865;50.918;7.092;2022-07-29T06:23:22;23.70;38.60
3699;DHT22;1865;50.918;7.092;2022-07-29T06:25:49;23.80;38.20
3699;DHT22;1865;50.918;7.092;2022-07-29T06:28:14;23.80;38.40
3699;DHT22;1865;50.918;7.092;2022-07-29T06:30:44;23.90;38.60
3699;DHT22;1865;50.918;7.092;2022-07-29T06:33:09;23.90;38.30
3699;DHT22;1865;50.918;7.092;2022-07-29T06:35:41;24.00;37.80
3699;DHT22;1865;50.918;7.092;2022-07-29T06:38:07;24.20;37.70
3699;DHT22;1865;50.918;7.092;2022-07-29T06:40:35;24.20;37.60
3699;DHT22;1865;50.918;7.092;2022-07-29T06:43:19;24.20;37.40
3699;DHT22;1865;50.918;7.092;2022-07-29T06:45:44;24.20;37.40
3699;DHT22;1865;50.918;7.092;2022-07-29T06:48:10;24.20;37.80
3699;DHT22;1865;50.918;7.092;2022-07-29T06:50:37;24.30;37.80
3699;DHT22;1865;50.918;7.092;2022-07-29T06:53:03;24.30;37.60
3699;DHT22;1865;50.918;7.092;2022-07-29T06:55:31;24.30;37.30
3699;DHT22;1865;50.918;7.092;2022-07-29T06:57:56;24.30;37.60
3699;DHT22;1865;50.918;7.092;2022-07-29T07:00:22;24.40;37.60
3699;DHT22;1865;50.918;7.092;2022-07-29T07:02:47;24.40;37.40
3699;DHT22;1865;50.918;7.092;2022-07-29T07:05:14;24.50;37.20
3699;DHT22;1865;50.918;7.092;2022-07-29T07:07:41;24.50;37.00
3699;DHT22;1865;50.918;7.092;2022-07-29T07:10:08;24.40;37.10
3699;DHT22;1865;50.918;7.092;2022-07-29T07:12:34;24.50;37.50
3699;DHT22;1865;50.918;7.092;2022-07-29T07:15:00;24.60;37.40
3699;DHT22;1865;50.918;7.092;2022-07-29T07:17:26;24.60;37.30
3699;DHT22;1865;50.918;7.092;2022-07-29T07:19:51;24.70;37.20
3699;DHT22;1865;50.918;7.092;2022-07-29T07:22:18;24.70;37.20
3699;DHT22;1865;50.918;7.092;2022-07-29T07:24:43;24.70;37.40
3699;DHT22;1865;50.918;7.092;2022-07-29T07:27:09;24.70;37.20
3699;DHT22;1865;50.918;7.092;2022-07-29T07:29:36;24.70;37.10
3699;DHT22;1865;50.918;7.092;2022-07-29T07:32:06;24.70;37.00
3699;DHT22;1865;50.918;7.092;2022-07-29T07:34:32;24.60;37.00
3699;DHT22;1865;50.918;7.092;2022-07-29T07:36:59;24.60;37.70
3699;DHT22;1865;50.918;7.092;2022-07-29T07:39:24;24.70;37.10
3699;DHT22;1865;50.918;7.092;2022-07-29T07:41:52;24.90;37.10
3699;DHT22;1865;50.918;7.092;2022-07-29T07:44:17;25.00;36.90
3699;DHT22;1865;50.918;7.092;2022-07-29T07:46:43;25.10;36.80
3699;DHT22;1865;50.918;7.092;2022-07-29T07:49:10;25.10;36.80
3699;DHT22;1865;50.918;7.092;2022-07-29T07:51:37;25.10;36.90
3699;DHT22;1865;50.918;7.092;2022-07-29T07:54:03;25.20;36.80
3699;DHT22;1865;50.918;7.092;2022-07-29T07:56:29;25.20;36.80
3699;DHT22;1865;50.918;7.092;2022-07-29T07:58:55;25.10;37.10
3699;DHT22;1865;50.918;7.092;2022-07-29T08:01:20;25.00;36.80
3699;DHT22;1865;50.918;7.092;2022-07-29T08:03:49;24.90;37.00
3699;DHT22;1865;50.918;7.092;2022-07-29T08:06:16;24.80;37.00
3699;DHT22;1865;50.918;7.092;2022-07-29T08:08:43;24.80;37.20
3699;DHT22;1865;50.918;7.092;2022-07-29T08:11:09;24.90;38.10
3699;DHT22;1865;50.918;7.092;2022-07-29T08:13:34;25.00;37.10
3699;DHT22;1865;50.918;7.092;2022-07-29T08:16:00;25.00;37.00
3699;DHT22;1865;50.918;7.092;2022-07-29T08:18:30;25.10;36.80
3699;DHT22;1865;50.918;7.092;2022-07-29T08:20:57;25.10;36.70
3699;DHT22;1865;50.918;7.092;2022-07-29T08:23:24;25.20;36.40
3699;DHT22;1865;50.918;7.092;2022-07-29T08:25:52;25.20;36.30
3699;DHT22;1865;50.918;7.092;2022-07-29T08:28:19;25.20;36.00
3699;DHT22;1865;50.918;7.092;2022-07-29T08:30:44;25.10;36.20
3699;DHT22;1865;50.918;7.092;2022-07-29T08:33:10;25.20;36.30
3699;DHT22;1865;50.918;7.092;2022-07-29T08:35:35;25.20;36.30
3699;DHT22;1865;50.918;7.092;2022-07-29T08:38:01;25.30;36.20
3699;DHT22;1865;50.918;7.092;2022-07-29T08:40:28;25.30;36.20
3699;DHT22;1865;50.918;7.092;2022-07-29T08:42:55;25.50;36.10
3699;DHT22;1865;50.918;7.092;2022-07-29T08:45:23;25.50;36.20
3699;DHT22;1865;50.918;7.092;2022-07-29T08:47:49;25.50;35.90
3699;DHT22;1865;50.918;7.092;2022-07-29T08:50:14;25.60;36.00
3699;DHT22;1865;50.918;7.092;2022-07-29T08:52:42;25.60;36.10
3699;DHT22;1865;50.918;7.092;2022-07-29T08:55:09;25.60;36.30
3699;DHT22;1865;50.918;7.092;2022-07-29T08:57:35;25.60;36.10
3699;DHT22;1865;50.918;7.092;2022-07-29T09:00:06;25.60;36.20
3699;DHT22;1865;50.918;7.092;2022-07-29T09:02:39;25.60;36.30
3699;DHT22;1865;50.918;7.092;2022-07-29T09:05:05;25.70;36.20
3699;DHT22;1865;50.918;7.092;2022-07-29T09:07:32;25.60;36.40
3699;DHT22;1865;50.918;7.092;2022-07-29T09:10:01;25.50;36.10
3699;DHT22;1865;50.918;7.092;2022-07-29T09:12:29;25.40;36.50
3699;DHT22;1865;50.918;7.092;2022-07-29T09:14:54;25.40;36.80
3699;DHT22;1865;50.918;7.092;2022-07-29T09:17:41;25.40;36.80
3699;DHT22;1865;50.918;7.092;2022-07-29T09:20:12;25.60;36.90
3699;DHT22;1865;50.918;7.092;2022-07-29T09:22:40;25.60;36.70
3699;DHT22;1865;50.918;7.092;2022-07-29T09:25:06;25.70;36.70
3699;DHT22;1865;50.918;7.092;2022-07-29T09:27:32;25.80;36.40
3699;DHT22;1865;50.918;7.092;2022-07-29T09:30:09;25.90;36.40
3699;DHT22;1865;50.918;7.092;2022-07-29T09:33:01;26.10;36.70
3699;DHT22;1865;50.918;7.092;2022-07-29T09:35:27;26.30;35.70
3699;DHT22;1865;50.918;7.092;2022-07-29T09:37:55;26.30;35.90
3699;DHT22;1865;50.918;7.092;2022-07-29T09:40:28;26.50;35.80
3699;DHT22;1865;50.918;7.092;2022-07-29T09:42:54;26.60;35.20
3699;DHT22;1865;50.918;7.092;2022-07-29T09:45:27;26.70;35.20
3699;DHT22;1865;50.918;7.092;2022-07-29T09:47:53;26.90;35.00
3699;DHT22;1865;50.918;7.092;2022-07-29T09:50:21;26.90;35.20
3699;DHT22;1865;50.918;7.092;2022-07-29T09:52:52;27.10;35.20
3699;DHT22;1865;50.918;7.092;2022-07-29T09:55:20;27.10;34.60
3699;DHT22;1865;50.918;7.092;2022-07-29T09:57:49;27.10;34.80
3699;DHT22;1865;50.918;7.092;2022-07-29T10:00:19;27.20;35.20
3699;DHT22;1865;50.918;7.092;2022-07-29T10:02:46;27.30;35.00
3699;DHT22;1865;50.918;7.092;2022-07-29T10:05:26;27.30;33.70
3699;DHT22;1865;50.918;7.092;2022-07-29T10:07:58;27.20;34.40
3699;DHT22;1865;50.918;7.092;2022-07-29T10:10:30;27.20;34.60
3699;DHT22;1865;50.918;7.092;2022-07-29T10:12:57;27.20;34.80
3699;DHT22;1865;50.918;7.092;2022-07-29T10:15:26;26.90;35.90
3699;DHT22;1865;50.918;7.092;2022-07-29T10:17:54;26.80;36.60
3699;DHT22;1865;50.918;7.092;2022-07-29T10:20:22;26.70;37.00
3699;DHT22;1865;50.918;7.092;2022-07-29T10:22:53;26.60;36.60
3699;DHT22;1865;50.918;7.092;2022-07-29T10:25:23;26.60;36.90
3699;DHT22;1865;50.918;7.092;2022-07-29T10:27:53;26.70;37.10
3699;DHT22;1865;50.918;7.092;2022-07-29T10:30:22;26.90;36.20
3699;DHT22;1865;50.918;7.092;2022-07-29T10:33:14;27.20;36.30
3699;DHT22;1865;50.918;7.092;2022-07-29T10:38:53;27.50;35.60
3699;DHT22;1865;50.918;7.092;2022-07-29T10:41:40;27.50;35.90
3699;DHT22;1865;50.918;7.092;2022-07-29T10:44:19;27.40;35.70
3699;DHT22;1865;50.918;7.092;2022-07-29T10:46:45;27.50;36.00
3699;DHT22;1865;50.918;7.092;2022-07-29T10:49:16;27.50;35.70
3699;DHT22;1865;50.918;7.092;2022-07-29T10:57:18;27.20;37.00
3699;DHT22;1865;50.918;7.092;2022-07-29T11:05:20;27.40;36.80
3699;DHT22;1865;50.918;7.092;2022-07-29T11:08:18;27.50;36.70
3699;DHT22;1865;50.918;7.092;2022-07-29T11:10:47;27.50;36.20
3699;DHT22;1865;50.918;7.092;2022-07-29T11:13:21;27.50;36.90
3699;DHT22;1865;50.918;7.092;2022-07-29T11:15:58;27.60;36.70
3699;DHT22;1865;50.918;7.092;2022-07-29T11:18:24;27.70;36.20
3699;DHT22;1865;50.918;7.092;2022-07-29T11:20:51;27.80;35.50
3699;DHT22;1865;50.918;7.092;2022-07-29T11:23:23;27.90;35.00
3699;DHT22;1865;50.918;7.092;2022-07-29T11:31:42;28.50;34.00
3699;DHT22;1865;50.918;7.092;2022-07-29T11:39:39;28.70;33.10
3699;DHT22;1865;50.918;7.092;2022-07-29T11:47:38;28.50;33.50
3699;DHT22;1865;50.918;7.092;2022-07-29T11:50:08;28.60;33.50
3699;DHT22;1865;50.918;7.092;2022-07-29T11:52:44;28.60;32.90
3699;DHT22;1865;50.918;7.092;2022-07-29T11:55:15;28.70;33.20
3699;DHT22;1865;50.918;7.092;2022-07-29T11:57:52;28.90;32.30
3699;DHT22;1865;50.918;7.092;2022-07-29T12:00:39;29.20;31.00
3699;DHT22;1865;50.918;7.092;2022-07-29T12:03:09;29.40;30.70
3699;DHT22;1865;50.918;7.092;2022-07-29T12:05:39;29.60;31.40
3699;DHT22;1865;50.918;7.092;2022-07-29T12:08:06;29.70;30.50
3699;DHT22;1865;50.918;7.092;2022-07-29T12:10:36;29.80;30.30
3699;DHT22;1865;50.918;7.092;2022-07-29T12:13:02;29.90;30.10
3699;DHT22;1865;50.918;7.092;2022-07-29T12:15:29;29.90;29.50
3699;DHT22;1865;50.918;7.092;2022-07-29T12:17:55;30.00;29.90
3699;DHT22;1865;50.918;7.092;2022-07-29T12:20:29;30.20;29.80
3699;DHT22;1865;50.918;7.092;2022-07-29T12:22:56;30.20;28.70
3699;DHT22;1865;50.918;7.092;2022-07-29T12:25:23;30.20;29.00
3699;DHT22;1865;50.918;7.092;2022-07-29T12:28:02;30.30;29.00
3699;DHT22;1865;50.918;7.092;2022-07-29T12:30:42;30.30;29.50
3699;DHT22;1865;50.918;7.092;2022-07-29T12:33:17;30.50;28.30
3699;DHT22;1865;50.918;7.092;2022-07-29T12:35:47;30.80;28.30
3699;DHT22;1865;50.918;7.092;2022-07-29T12:38:14;30.80;28.10
3699;DHT22;1865;50.918;7.092;2022-07-29T12:40:39;30.50;28.10
3699;DHT22;1865;50.918;7.092;2022-07-29T12:43:12;30.10;28.40
3699;DHT22;1865;50.918;7.092;2022-07-29T12:45:41;29.80;28.90
3699;DHT22;1865;50.918;7.092;2022-07-29T12:48:08;29.50;29.00
3699;DHT22;1865;50.918;7.092;2022-07-29T12:50:35;29.30;29.10
3699;DHT22;1865;50.918;7.092;2022-07-29T12:53:10;29.00;29.60
3699;DHT22;1865;50.918;7.092;2022-07-29T12:58:08;29.10;31.40
3699;DHT22;1865;50.918;7.092;2022-07-29T13:00:34;29.20;32.30
3699;DHT22;1865;50.918;7.092;2022-07-29T13:03:00;29.40;32.90
3699;DHT22;1865;50.918;7.092;2022-07-29T13:05:44;29.40;30.70
3699;DHT22;1865;50.918;7.092;2022-07-29T13:08:14;29.60;30.50
3699;DHT22;1865;50.918;7.092;2022-07-29T13:10:40;29.80;29.90
3699;DHT22;1865;50.918;7.092;2022-07-29T13:13:08;29.90;29.60
3699;DHT22;1865;50.918;7.092;2022-07-29T13:15:38;29.90;28.30
3699;DHT22;1865;50.918;7.092;2022-07-29T13:18:04;30.10;29.20
3699;DHT22;1865;50.918;7.092;2022-07-29T13:20:31;30.30;28.90
3699;DHT22;1865;50.918;7.092;2022-07-29T13:22:58;30.50;28.60
3699;DHT22;1865;50.918;7.092;2022-07-29T13:25:31;30.60;27.60
3699;DHT22;1865;50.918;7.092;2022-07-29T13:28:02;30.70;27.60
3699;DHT22;1865;50.918;7.092;2022-07-29T13:30:29;30.70;27.40
3699;DHT22;1865;50.918;7.092;2022-07-29T13:32:55;31.50;26.20
3699;DHT22;1865;50.918;7.092;2022-07-29T13:35:20;32.40;25.60
3699;DHT22;1865;50.918;7.092;2022-07-29T13:37:47;32.90;24.50
3699;DHT22;1865;50.918;7.092;2022-07-29T13:40:15;33.30;24.10
3699;DHT22;1865;50.918;7.092;2022-07-29T13:42:41;33.50;24.10
3699;DHT22;1865;50.918;7.092;2022-07-29T13:45:08;33.80;24.10
3699;DHT22;1865;50.918;7.092;2022-07-29T13:47:34;34.30;23.00
3699;DHT22;1865;50.918;7.092;2022-07-29T13:50:01;34.30;23.00
3699;DHT22;1865;50.918;7.092;2022-07-29T13:52:30;34.40;23.00
3699;DHT22;1865;50.918;7.092;2022-07-29T13:54:56;35.10;21.90
3699;DHT22;1865;50.918;7.092;2022-07-29T13:57:23;35.00;22.50
3699;DHT22;1865;50.918;7.092;2022-07-29T13:59:49;35.20;21.70
3699;DHT22;1865;50.918;7.092;2022-07-29T14:02:18;35.50;21.80
3699;DHT22;1865;50.918;7.092;2022-07-29T14:04:44;36.20;21.20
3699;DHT22;1865;50.918;7.092;2022-07-29T14:07:10;36.20;21.80
3699;DHT22;1865;50.918;7.092;2022-07-29T14:09:35;36.90;20.80
3699;DHT22;1865;50.918;7.092;2022-07-29T14:12:04;37.30;20.90
3699;DHT22;1865;50.918;7.092;2022-07-29T14:14:30;37.30;20.90
3699;DHT22;1865;50.918;7.092;2022-07-29T14:16:57;37.40;22.00
3699;DHT22;1865;50.918;7.092;2022-07-29T14:19:23;37.30;21.30
3699;DHT22;1865;50.918;7.092;2022-07-29T14:21:50;36.90;20.80
3699;DHT22;1865;50.918;7.092;2022-07-29T14:24:16;36.40;21.80
3699;DHT22;1865;50.918;7.092;2022-07-29T14:26:43;35.90;22.60
3699;DHT22;1865;50.918;7.092;2022-07-29T14:29:11;35.60;22.60
3699;DHT22;1865;50.918;7.092;2022-07-29T14:31:37;35.00;23.80
3699;DHT22;1865;50.918;7.092;2022-07-29T14:34:03;34.20;24.30
3699;DHT22;1865;50.918;7.092;2022-07-29T14:36:28;33.50;25.00
3699;DHT22;1865;50.918;7.092;2022-07-29T14:38:54;33.00;25.60
3699;DHT22;1865;50.918;7.092;2022-07-29T14:41:20;32.50;26.20
3699;DHT22;1865;50.918;7.092;2022-07-29T14:43:48;32.00;26.70
3699;DHT22;1865;50.918;7.092;2022-07-29T14:46:14;31.90;26.60
3699;DHT22;1865;50.918;7.092;2022-07-29T14:48:40;31.70;26.90
3699;DHT22;1865;50.918;7.092;2022-07-29T14:51:05;31.60;27.60
3699;DHT22;1865;50.918;7.092;2022-07-29T14:53:35;31.50;28.30
3699;DHT22;1865;50.918;7.092;2022-07-29T14:56:00;31.40;27.60
3699;DHT22;1865;50.918;7.092;2022-07-29T14:58:26;31.30;27.80
3699;DHT22;1865;50.918;7.092;2022-07-29T15:00:55;31.30;27.70
3699;DHT22;1865;50.918;7.092;2022-07-29T15:03:22;31.30;28.30
3699;DHT22;1865;50.918;7.092;2022-07-29T15:05:49;31.20;27.50
3699;DHT22;1865;50.918;7.092;2022-07-29T15:08:16;31.10;27.70
3699;DHT22;1865;50.918;7.092;2022-07-29T15:10:42;31.10;27.90
3699;DHT22;1865;50.918;7.092;2022-07-29T15:13:07;31.00;27.80
3699;DHT22;1865;50.918;7.092;2022-07-29T15:15:33;30.90;27.40
3699;DHT22;1865;50.918;7.092;2022-07-29T15:17:59;30.70;27.90
3699;DHT22;1865;50.918;7.092;2022-07-29T15:20:26;30.50;28.30
3699;DHT22;1865;50.918;7.092;2022-07-29T15:22:54;30.20;28.70
3699;DHT22;1865;50.918;7.092;2022-07-29T15:25:21;30.20;29.10
3699;DHT22;1865;50.918;7.092;2022-07-29T15:27:47;30.10;29.30
3699;DHT22;1865;50.918;7.092;2022-07-29T15:30:14;30.10;29.50
3699;DHT22;1865;50.918;7.092;2022-07-29T15:32:43;30.20;29.30
3699;DHT22;1865;50.918;7.092;2022-07-29T15:35:09;30.30;29.20
3699;DHT22;1865;50.918;7.092;2022-07-29T15:37:37;30.20;29.30
3699;DHT22;1865;50.918;7.092;2022-07-29T15:40:06;30.20;29.10
3699;DHT22;1865;50.918;7.092;2022-07-29T15:42:32;30.20;29.00
3699;DHT22;1865;50.918;7.092;2022-07-29T15:45:00;30.20;29.10
3699;DHT22;1865;50.918;7.092;2022-07-29T15:47:28;30.20;28.80
3699;DHT22;1865;50.918;7.092;2022-07-29T15:49:54;30.20;28.60
3699;DHT22;1865;50.918;7.092;2022-07-29T15:52:22;30.10;28.60
3699;DHT22;1865;50.918;7.092;2022-07-29T15:54:48;30.00;28.90
3699;DHT22;1865;50.918;7.092;2022-07-29T15:57:13;30.00;28.70
3699;DHT22;1865;50.918;7.092;2022-07-29T15:59:39;29.80;28.20
3699;DHT22;1865;50.918;7.092;2022-07-29T16:02:05;29.70;28.50
3699;DHT22;1865;50.918;7.092;2022-07-29T16:04:30;29.70;28.40
3699;DHT22;1865;50.918;7.092;2022-07-29T16:06:58;29.80;28.30
3699;DHT22;1865;50.918;7.092;2022-07-29T16:09:23;30.00;28.50
3699;DHT22;1865;50.918;7.092;2022-07-29T16:11:51;30.10;28.10
3699;DHT22;1865;50.918;7.092;2022-07-29T16:14:19;30.20;28.20
3699;DHT22;1865;50.918;7.092;2022-07-29T16:16:44;30.20;28.30
3699;DHT22;1865;50.918;7.092;2022-07-29T16:19:10;30.10;27.30
3699;DHT22;1865;50.918;7.092;2022-07-29T16:21:36;30.00;26.60
3699;DHT22;1865;50.918;7.092;2022-07-29T16:24:06;30.00;27.10
3699;DHT22;1865;50.918;7.092;2022-07-29T16:26:34;30.00;27.20
3699;DHT22;1865;50.918;7.092;2022-07-29T16:29:00;30.00;28.00
3699;DHT22;1865;50.918;7.092;2022-07-29T16:31:27;29.80;27.60
3699;DHT22;1865;50.918;7.092;2022-07-29T16:33:52;29.80;27.80
3699;DHT22;1865;50.918;7.092;2022-07-29T16:36:18;29.80;27.40
3699;DHT22;1865;50.918;7.092;2022-07-29T16:38:44;29.80;27.70
3699;DHT22;1865;50.918;7.092;2022-07-29T16:41:12;29.70;28.20
3699;DHT22;1865;50.918;7.092;2022-07-29T16:43:39;29.70;28.10
3699;DHT22;1865;50.918;7.092;2022-07-29T16:46:08;29.60;28.00
3699;DHT22;1865;50.918;7.092;2022-07-29T16:48:36;29.50;28.20
3699;DHT22;1865;50.918;7.092;2022-07-29T16:51:04;29.50;28.30
3699;DHT22;1865;50.918;7.092;2022-07-29T16:53:30;29.40;28.60
3699;DHT22;1865;50.918;7.092;2022-07-29T16:55:56;29.40;28.60
3699;DHT22;1865;50.918;7.092;2022-07-29T16:58:22;29.30;28.50